sensor_id;sensor_type;location;lat;lon;timestamp;temperature;humidity
17591;DHT22;8914;50.070;8.226;2023-04-01T00:01:41;11.90;99.90
17591;DHT22;8914;50.070;8.226;2023-04-01T00:04:11;11.90;99.90
17591;DHT22;8914;50.070;8.226;2023-04-01T00:06:40;11.90;99.90
17591;DHT22;8914;50.070;8.226;2023-04-01T00:09:10;11.90;99.90
17591;DHT22;8914;50.070;8.226;2023-04-01T00:11:40;11.90;99.90
17591;DHT22;8914;50.070;8.226;2023-04-01T00:14:12;11.80;99.90
17591;DHT22;8914;50.070;8.226;2023-04-01T00:16:42;11.80;99.90
17591;DHT22;8914;50.070;8.226;2023-04-01T00:19:11;11.90;99.90
17591;DHT22;8914;50.070;8.226;2023-04-01T00:21:41;11.80;99.90
17591;DHT22;8914;50.070;8.226;2023-04-01T00:24:11;11.80;99.90
17591;DHT22;8914;50.070;8.226;2023-04-01T00:26:40;11.80;99.90
17591;DHT22;8914;50.070;8.226;2023-04-01T00:29:13;11.70;99.90
17591;DHT22;8914;50.070;8.226;2023-04-01T00:31:43;11.80;99.90
17591;DHT22;8914;50.070;8.226;2023-04-01T00:34:13;11.80;99.90
17591;DHT22;8914;50.070;8.226;2023-04-01T00:36:42;11.80;99.90
17591;DHT22;8914;50.070;8.226;2023-04-01T00:39:12;11.80;99.90
17591;DHT22;8914;50.070;8.226;2023-04-01T00:41:42;11.70;99.90
17591;DHT22;8914;50.070;8.226;2023-04-01T00:44:16;11.80;99.90
17591;DHT22;8914;50.070;8.226;2023-04-01T00:46:46;11.70;99.90
17591;DHT22;8914;50.070;8.226;2023-04-01T00:49:16;11.70;99.90
17591;DHT22;8914;50.070;8.226;2023-04-01T00:51:48;11.70;99.90
17591;DHT22;8914;50.070;8.226;2023-04-01T00:54:19;11.70;99.90
17591;DHT22;8914;50.070;8.226;2023-04-01T00:56:50;11.70;99.90
17591;DHT22;8914;50.070;8.226;2023-04-01T00:59:26;11.70;99.90
17591;DHT22;8914;50.070;8.226;2023-04-01T01:01:57;11.60;99.90
17591;DHT22;8914;50.070;8.226;2023-04-01T01:04:27;11.70;99.90
17591;DHT22;8914;50.070;8.226;2023-04-01T01:07:00;11.60;99.90
17591;DHT22;8914;50.070;8.226;2023-04-01T01:09:36;11.60;99.90
17591;DHT22;8914;50.070;8.226;2023-04-01T01:12:11;11.60;99.90
17591;DHT22;8914;50.070;8.226;2023-04-01T01:14:51;11.60;99.90
17591;DHT22;8914;50.070;8.226;2023-04-01T01:17:26;11.60;99.90
17591;DHT22;8914;50.070;8.226;2023-04-01T01:22:55;11.60;99.90
17591;DHT22;8914;50.070;8.226;2023-04-01T01:25:31;11.60;99.90
17591;DHT22;8914;50.070;8.226;2023-04-01T01:28:19;11.60;99.90
17591;DHT22;8914;50.070;8.226;2023-04-01T01:30:55;11.60;99.90
17591;DHT22;8914;50.070;8.226;2023-04-01T01:33:32;11.50;99.90
17591;DHT22;8914;50.070;8.226;2023-04-01T01:36:08;11.50;99.90
17591;DHT22;8914;50.070;8.226;2023-04-01T01:38:39;11.50;99.90
17591;DHT22;8914;50.070;8.226;2023-04-01T01:41:09;11.50;99.90
17591;DHT22;8914;50.070;8.226;2023-04-01T01:43:40;11.50;99.90
17591;DHT22;8914;50.070;8.226;2023-04-01T01:46:11;11.50;99.90
17591;DHT22;8914;50.070;8.226;2023-04-01T01:48:41;11.50;99.90
17591;DHT22;8914;50.070;8.226;2023-04-01T01:51:14;11.50;99.90
17591;DHT22;8914;50.070;8.226;2023-04-01T01:53:44;11.50;99.90
17591;DHT22;8914;50.070;8.226;2023-04-01T01:56:14;11.60;99.90
17591;DHT22;8914;50.070;8.226;2023-04-01T01:58:46;11.60;99.90
17591;DHT22;8914;50.070;8.226;2023-04-01T02:01:17;11.50;99.90
17591;DHT22;8914;50.070;8.226;2023-04-01T02:03:48;11.50;99.90
17591;DHT22;8914;50.070;8.226;2023-04-01T02:06:22;11.40;99.90
17591;DHT22;8914;50.070;8.226;2023-04-01T02:08:53;11.40;99.90
17591;DHT22;8914;50.070;8.226;2023-04-01T02:11:25;11.40;99.90
17591;DHT22;8914;50.070;8.226;2023-04-01T02:13:58;11.40;99.90
17591;DHT22;8914;50.070;8.226;2023-04-01T02:16:31;11.40;99.90
17591;DHT22;8914;50.070;8.226;2023-04-01T02:19:02;11.40;99.90
17591;DHT22;8914;50.070;8.226;2023-04-01T02:21:37;11.40;99.90
17591;DHT22;8914;50.070;8.226;2023-04-01T02:24:10;11.40;99.90
17591;DHT22;8914;50.070;8.226;2023-04-01T02:26:41;11.40;99.90
17591;DHT22;8914;50.070;8.226;2023-04-01T02:29:11;11.40;99.90
17591;DHT22;8914;50.070;8.226;2023-04-01T02:31:41;11.40;99.90
17591;DHT22;8914;50.070;8.226;2023-04-01T02:34:11;11.40;99.90
17591;DHT22;8914;50.070;8.226;2023-04-01T02:36:44;11.40;99.90
17591;DHT22;8914;50.070;8.226;2023-04-01T02:39:13;11.40;99.90
17591;DHT22;8914;50.070;8.226;2023-04-01T02:41:44;11.40;99.90
17591;DHT22;8914;50.070;8.226;2023-04-01T02:44:14;11.40;99.90
17591;DHT22;8914;50.070;8.226;2023-04-01T02:46:44;11.40;99.90
17591;DHT22;8914;50.070;8.226;2023-04-01T02:49:13;11.40;99.90
17591;DHT22;8914;50.070;8.226;2023-04-01T02:51:46;11.40;99.90
17591;DHT22;8914;50.070;8.226;2023-04-01T02:54:15;11.40;99.90
17591;DHT22;8914;50.070;8.226;2023-04-01T02:56:45;11.40;99.90
17591;DHT22;8914;50.070;8.226;2023-04-01T02:59:14;11.40;99.90
17591;DHT22;8914;50.070;8.226;2023-04-01T03:01:44;11.30;99.90
17591;DHT22;8914;50.070;8.226;2023-04-01T03:04:14;11.30;99.90
17591;DHT22;8914;50.070;8.226;2023-04-01T03:06:46;11.30;99.90
17591;DHT22;8914;50.070;8.226;2023-04-01T03:09:16;11.30;99.90
17591;DHT22;8914;50.070;8.226;2023-04-01T03:11:46;10.50;99.90
17591;DHT22;8914;50.070;8.226;2023-04-01T03:14:15;11.20;99.90
17591;DHT22;8914;50.070;8.226;2023-04-01T03:16:45;11.20;99.90
17591;DHT22;8914;50.070;8.226;2023-04-01T03:19:15;11.20;99.90
17591;DHT22;8914;50.070;8.226;2023-04-01T03:21:47;11.20;99.90
17591;DHT22;8914;50.070;8.226;2023-04-01T03:24:16;11.10;99.90
17591;DHT22;8914;50.070;8.226;2023-04-01T03:26:46;11.20;99.90
17591;DHT22;8914;50.070;8.226;2023-04-01T03:29:15;11.20;99.90
17591;DHT22;8914;50.070;8.226;2023-04-01T03:31:45;11.20;99.90
17591;DHT22;8914;50.070;8.226;2023-04-01T03:34:15;11.20;99.90
17591;DHT22;8914;50.070;8.226;2023-04-01T03:36:47;11.10;99.90
17591;DHT22;8914;50.070;8.226;2023-04-01T03:39:17;11.10;99.90
17591;DHT22;8914;50.070;8.226;2023-04-01T03:41:47;11.10;99.90
17591;DHT22;8914;50.070;8.226;2023-04-01T03:44:17;11.10;99.90
17591;DHT22;8914;50.070;8.226;2023-04-01T03:46:46;11.10;99.90
17591;DHT22;8914;50.070;8.226;2023-04-01T03:49:16;11.10;99.90
17591;DHT22;8914;50.070;8.226;2023-04-01T03:51:48;11.10;99.90
17591;DHT22;8914;50.070;8.226;2023-04-01T03:54:18;11.10;99.90
17591;DHT22;8914;50.070;8.226;2023-04-01T03:56:48;11.10;99.90
17591;DHT22;8914;50.070;8.226;2023-04-01T03:59:18;11.10;99.90
17591;DHT22;8914;50.070;8.226;2023-04-01T04:01:47;11.20;99.90
17591;DHT22;8914;50.070;8.226;2023-04-01T04:04:17;11.10;99.90
17591;DHT22;8914;50.070;8.226;2023-04-01T04:06:49;11.10;99.90
17591;DHT22;8914;50.070;8.226;2023-04-01T04:09:19;11.10;99.90
17591;DHT22;8914;50.070;8.226;2023-04-01T04:11:48;11.10;99.90
17591;DHT22;8914;50.070;8.226;2023-04-01T04:14:18;11.10;99.90
17591;DHT22;8914;50.070;8.226;2023-04-01T04:16:48;11.10;99.90
17591;DHT22;8914;50.070;8.226;2023-04-01T04:19:17;11.10;99.90
17591;DHT22;8914;50.070;8.226;2023-04-01T04:21:50;11.10;99.90
17591;DHT22;8914;50.070;8.226;2023-04-01T04:24:19;11.10;99.90
17591;DHT22;8914;50.070;8.226;2023-04-01T04:26:49;11.00;99.90
17591;DHT22;8914;50.070;8.226;2023-04-01T04:29:19;11.00;99.90
17591;DHT22;8914;50.070;8.226;2023-04-01T04:31:49;11.00;99.90
17591;DHT22;8914;50.070;8.226;2023-04-01T04:34:19;11.00;99.90
17591;DHT22;8914;50.070;8.226;2023-04-01T04:36:51;11.00;99.90
17591;DHT22;8914;50.070;8.226;2023-04-01T04:39:21;11.00;99.90
17591;DHT22;8914;50.070;8.226;2023-04-01T04:41:50;11.00;99.90
17591;DHT22;8914;50.070;8.226;2023-04-01T04:44:20;11.00;99.90
17591;DHT22;8914;50.070;8.226;2023-04-01T04:46:49;11.00;99.90
17591;DHT22;8914;50.070;8.226;2023-04-01T04:49:21;11.00;99.90
17591;DHT22;8914;50.070;8.226;2023-04-01T04:51:53;11.00;99.90
17591;DHT22;8914;50.070;8.226;2023-04-01T04:54:22;11.00;99.90
17591;DHT22;8914;50.070;8.226;2023-04-01T04:56:52;11.00;99.90
17591;DHT22;8914;50.070;8.226;2023-04-01T04:59:22;11.00;99.90
17591;DHT22;8914;50.070;8.226;2023-04-01T05:01:51;11.00;99.90
17591;DHT22;8914;50.070;8.226;2023-04-01T05:04:21;11.00;99.90
17591;DHT22;8914;50.070;8.226;2023-04-01T05:06:53;11.00;99.90
17591;DHT22;8914;50.070;8.226;2023-04-01T05:09:23;11.00;99.90
17591;DHT22;8914;50.070;8.226;2023-04-01T05:11:53;11.00;99.90
17591;DHT22;8914;50.070;8.226;2023-04-01T05:14:22;11.00;99.90
17591;DHT22;8914;50.070;8.226;2023-04-01T05:16:52;11.00;99.90
17591;DHT22;8914;50.070;8.226;2023-04-01T05:19:22;11.00;99.90
17591;DHT22;8914;50.070;8.226;2023-04-01T05:21:54;11.10;99.90
17591;DHT22;8914;50.070;8.226;2023-04-01T05:24:23;11.00;99.90
17591;DHT22;8914;50.070;8.226;2023-04-01T05:26:53;11.00;99.90
17591;DHT22;8914;50.070;8.226;2023-04-01T05:29:24;10.90;99.90
17591;DHT22;8914;50.070;8.226;2023-04-01T05:31:54;10.90;99.90
17591;DHT22;8914;50.070;8.226;2023-04-01T05:34:23;11.00;99.90
17591;DHT22;8914;50.070;8.226;2023-04-01T05:36:55;10.90;99.90
17591;DHT22;8914;50.070;8.226;2023-04-01T05:39:25;10.90;99.90
17591;DHT22;8914;50.070;8.226;2023-04-01T05:41:55;10.90;99.90
17591;DHT22;8914;50.070;8.226;2023-04-01T05:44:24;11.00;99.90
17591;DHT22;8914;50.070;8.226;2023-04-01T05:46:54;11.00;99.90
17591;DHT22;8914;50.070;8.226;2023-04-01T05:49:23;10.90;99.90
17591;DHT22;8914;50.070;8.226;2023-04-01T05:51:57;10.90;99.90
17591;DHT22;8914;50.070;8.226;2023-04-01T05:54:26;10.90;99.90
17591;DHT22;8914;50.070;8.226;2023-04-01T05:56:56;10.90;99.90
17591;DHT22;8914;50.070;8.226;2023-04-01T05:59:26;10.90;99.90
17591;DHT22;8914;50.070;8.226;2023-04-01T06:01:57;10.90;99.90
17591;DHT22;8914;50.070;8.226;2023-04-01T06:04:28;10.90;99.90
17591;DHT22;8914;50.070;8.226;2023-04-01T06:07:08;10.90;99.90
17591;DHT22;8914;50.070;8.226;2023-04-01T06:09:40;10.90;99.90
17591;DHT22;8914;50.070;8.226;2023-04-01T06:12:15;10.90;99.90
17591;DHT22;8914;50.070;8.226;2023-04-01T06:14:47;10.90;99.90
17591;DHT22;8914;50.070;8.226;2023-04-01T06:17:24;10.90;99.90
17591;DHT22;8914;50.070;8.226;2023-04-01T06:19:56;11.00;99.90
17591;DHT22;8914;50.070;8.226;2023-04-01T06:22:34;11.00;99.90
17591;DHT22;8914;50.070;8.226;2023-04-01T06:25:13;11.00;99.90
17591;DHT22;8914;50.070;8.226;2023-04-01T06:27:48;11.00;99.90
17591;DHT22;8914;50.070;8.226;2023-04-01T06:30:28;10.90;99.90
17591;DHT22;8914;50.070;8.226;2023-04-01T06:33:06;10.90;99.90
17591;DHT22;8914;50.070;8.226;2023-04-01T06:35:41;10.90;99.90
17591;DHT22;8914;50.070;8.226;2023-04-01T06:41:06;10.90;99.90
17591;DHT22;8914;50.070;8.226;2023-04-01T06:43:41;10.90;99.90
17591;DHT22;8914;50.070;8.226;2023-04-01T06:46:15;10.90;99.90
17591;DHT22;8914;50.070;8.226;2023-04-01T06:49:02;10.90;99.90
17591;DHT22;8914;50.070;8.226;2023-04-01T06:51:36;10.90;99.90
17591;DHT22;8914;50.070;8.226;2023-04-01T06:54:09;10.90;99.90
17591;DHT22;8914;50.070;8.226;2023-04-01T06:56:43;10.90;99.90
17591;DHT22;8914;50.070;8.226;2023-04-01T06:59:14;10.80;99.90
17591;DHT22;8914;50.070;8.226;2023-04-01T07:01:45;10.90;99.90
17591;DHT22;8914;50.070;8.226;2023-04-01T07:04:17;10.80;99.90
17591;DHT22;8914;50.070;8.226;2023-04-01T07:06:48;10.90;99.90
17591;DHT22;8914;50.070;8.226;2023-04-01T07:09:20;10.90;99.90
17591;DHT22;8914;50.070;8.226;2023-04-01T07:11:55;10.90;99.90
17591;DHT22;8914;50.070;8.226;2023-04-01T07:14:27;10.90;99.90
17591;DHT22;8914;50.070;8.226;2023-04-01T07:16:59;10.90;99.90
17591;DHT22;8914;50.070;8.226;2023-04-01T07:19:31;10.90;99.90
17591;DHT22;8914;50.070;8.226;2023-04-01T07:22:03;10.90;99.90
17591;DHT22;8914;50.070;8.226;2023-04-01T07:24:34;10.90;99.90
17591;DHT22;8914;50.070;8.226;2023-04-01T07:27:08;10.90;99.90
17591;DHT22;8914;50.070;8.226;2023-04-01T07:29:38;10.90;99.90
17591;DHT22;8914;50.070;8.226;2023-04-01T07:32:16;11.00;99.90
17591;DHT22;8914;50.070;8.226;2023-04-01T07:34:51;11.00;99.90
17591;DHT22;8914;50.070;8.226;2023-04-01T07:37:26;11.10;99.90
17591;DHT22;8914;50.070;8.226;2023-04-01T07:40:00;11.20;99.90
17591;DHT22;8914;50.070;8.226;2023-04-01T07:42:35;11.20;99.90
17591;DHT22;8914;50.070;8.226;2023-04-01T07:45:08;11.30;99.90
17591;DHT22;8914;50.070;8.226;2023-04-01T07:47:44;11.30;99.90
17591;DHT22;8914;50.070;8.226;2023-04-01T07:50:17;11.40;99.90
17591;DHT22;8914;50.070;8.226;2023-04-01T07:52:52;11.40;99.90
17591;DHT22;8914;50.070;8.226;2023-04-01T07:55:25;11.50;99.90
17591;DHT22;8914;50.070;8.226;2023-04-01T07:58:01;11.50;99.90
17591;DHT22;8914;50.070;8.226;2023-04-01T08:00:34;11.40;99.90
17591;DHT22;8914;50.070;8.226;2023-04-01T08:03:13;11.40;99.90
17591;DHT22;8914;50.070;8.226;2023-04-01T08:05:49;11.40;99.90
17591;DHT22;8914;50.070;8.226;2023-04-01T08:08:23;11.40;99.90
17591;DHT22;8914;50.070;8.226;2023-04-01T08:10:57;11.30;99.90
17591;DHT22;8914;50.070;8.226;2023-04-01T08:13:34;11.30;99.90
17591;DHT22;8914;50.070;8.226;2023-04-01T08:16:09;11.30;99.90
17591;DHT22;8914;50.070;8.226;2023-04-01T08:18:41;11.30;99.90
17591;DHT22;8914;50.070;8.226;2023-04-01T08:21:16;11.30;99.90
17591;DHT22;8914;50.070;8.226;2023-04-01T08:23:48;11.30;99.90
17591;DHT22;8914;50.070;8.226;2023-04-01T08:26:21;11.30;99.90
17591;DHT22;8914;50.070;8.226;2023-04-01T08:28:57;11.30;99.90
17591;DHT22;8914;50.070;8.226;2023-04-01T08:31:30;11.40;99.90
17591;DHT22;8914;50.070;8.226;2023-04-01T08:34:01;11.40;99.90
17591;DHT22;8914;50.070;8.226;2023-04-01T08:36:32;11.40;99.90
17591;DHT22;8914;50.070;8.226;2023-04-01T08:39:04;11.40;99.90
17591;DHT22;8914;50.070;8.226;2023-04-01T08:41:41;11.40;99.90
17591;DHT22;8914;50.070;8.226;2023-04-01T08:49:54;11.40;99.90
17591;DHT22;8914;50.070;8.226;2023-04-01T08:52:28;11.50;99.90
17591;DHT22;8914;50.070;8.226;2023-04-01T08:55:10;11.50;99.90
17591;DHT22;8914;50.070;8.226;2023-04-01T08:57:45;11.50;99.90
17591;DHT22;8914;50.070;8.226;2023-04-01T09:00:22;11.50;99.90
17591;DHT22;8914;50.070;8.226;2023-04-01T09:05:46;11.50;99.90
17591;DHT22;8914;50.070;8.226;2023-04-01T09:08:21;11.50;99.90
17591;DHT22;8914;50.070;8.226;2023-04-01T09:11:05;11.60;99.90
17591;DHT22;8914;50.070;8.226;2023-04-01T09:19:24;11.60;99.90
17591;DHT22;8914;50.070;8.226;2023-04-01T09:22:05;11.70;99.90
17591;DHT22;8914;50.070;8.226;2023-04-01T09:24:44;11.70;99.90
17591;DHT22;8914;50.070;8.226;2023-04-01T09:27:20;11.70;99.90
17591;DHT22;8914;50.070;8.226;2023-04-01T09:30:06;11.80;99.90
17591;DHT22;8914;50.070;8.226;2023-04-01T09:32:54;11.80;99.90
17591;DHT22;8914;50.070;8.226;2023-04-01T09:35:25;11.80;99.90
17591;DHT22;8914;50.070;8.226;2023-04-01T09:38:09;11.90;99.90
17591;DHT22;8914;50.070;8.226;2023-04-01T09:40:45;11.80;99.90
17591;DHT22;8914;50.070;8.226;2023-04-01T09:43:25;11.80;99.90
17591;DHT22;8914;50.070;8.226;2023-04-01T09:46:09;11.90;99.90
17591;DHT22;8914;50.070;8.226;2023-04-01T09:51:27;12.10;99.90
17591;DHT22;8914;50.070;8.226;2023-04-01T09:54:06;12.20;99.90
17591;DHT22;8914;50.070;8.226;2023-04-01T09:59:32;12.30;99.90
17591;DHT22;8914;50.070;8.226;2023-04-01T10:02:13;12.40;99.90
17591;DHT22;8914;50.070;8.226;2023-04-01T10:10:39;12.40;99.90
17591;DHT22;8914;50.070;8.226;2023-04-01T10:13:27;12.50;99.90
17591;DHT22;8914;50.070;8.226;2023-04-01T10:16:03;12.50;99.90
17591;DHT22;8914;50.070;8.226;2023-04-01T10:18:56;12.60;99.90
17591;DHT22;8914;50.070;8.226;2023-04-01T10:21:37;12.60;99.90
17591;DHT22;8914;50.070;8.226;2023-04-01T10:24:25;12.60;99.90
17591;DHT22;8914;50.070;8.226;2023-04-01T10:27:08;12.60;99.90
17591;DHT22;8914;50.070;8.226;2023-04-01T10:29:48;12.60;99.90
17591;DHT22;8914;50.070;8.226;2023-04-01T10:35:18;12.60;99.90
17591;DHT22;8914;50.070;8.226;2023-04-01T10:38:02;12.70;99.90
17591;DHT22;8914;50.070;8.226;2023-04-01T10:40:44;12.60;99.90
17591;DHT22;8914;50.070;8.226;2023-04-01T10:43:26;12.60;99.90
17591;DHT22;8914;50.070;8.226;2023-04-01T10:46:06;12.60;99.90
17591;DHT22;8914;50.070;8.226;2023-04-01T10:48:52;12.70;99.90
17591;DHT22;8914;50.070;8.226;2023-04-01T10:51:38;12.80;99.90
17591;DHT22;8914;50.070;8.226;2023-04-01T10:54:16;12.80;99.90
17591;DHT22;8914;50.070;8.226;2023-04-01T10:56:51;12.80;99.90
17591;DHT22;8914;50.070;8.226;2023-04-01T10:59:41;12.90;99.90
17591;DHT22;8914;50.070;8.226;2023-04-01T11:07:54;13.20;99.90
17591;DHT22;8914;50.070;8.226;2023-04-01T11:19:04;13.20;99.90
17591;DHT22;8914;50.070;8.226;2023-04-01T11:21:44;13.30;99.90
17591;DHT22;8914;50.070;8.226;2023-04-01T11:24:21;13.20;99.90
17591;DHT22;8914;50.070;8.226;2023-04-01T11:26:57;13.20;99.90
17591;DHT22;8914;50.070;8.226;2023-04-01T11:29:41;13.20;99.90
17591;DHT22;8914;50.070;8.226;2023-04-01T11:32:31;13.20;99.90
17591;DHT22;8914;50.070;8.226;2023-04-01T11:35:13;13.10;99.90
17591;DHT22;8914;50.070;8.226;2023-04-01T11:37:50;13.20;99.90
17591;DHT22;8914;50.070;8.226;2023-04-01T11:40:25;13.20;99.90
17591;DHT22;8914;50.070;8.226;2023-04-01T11:42:59;13.10;99.90
17591;DHT22;8914;50.070;8.226;2023-04-01T11:45:33;13.20;99.90
17591;DHT22;8914;50.070;8.226;2023-04-01T11:48:09;13.10;99.90
17591;DHT22;8914;50.070;8.226;2023-04-01T11:50:47;13.10;99.90
17591;DHT22;8914;50.070;8.226;2023-04-01T11:53:31;13.20;99.90
17591;DHT22;8914;50.070;8.226;2023-04-01T11:56:11;13.20;99.90
17591;DHT22;8914;50.070;8.226;2023-04-01T12:01:29;13.20;99.90
17591;DHT22;8914;50.070;8.226;2023-04-01T12:06:52;13.20;99.90
17591;DHT22;8914;50.070;8.226;2023-04-01T12:09:24;13.20;99.90
17591;DHT22;8914;50.070;8.226;2023-04-01T12:12:00;13.20;99.90
17591;DHT22;8914;50.070;8.226;2023-04-01T12:14:33;13.20;99.90
17591;DHT22;8914;50.070;8.226;2023-04-01T12:17:07;13.20;99.90
17591;DHT22;8914;50.070;8.226;2023-04-01T12:19:40;13.20;99.90
17591;DHT22;8914;50.070;8.226;2023-04-01T12:22:21;13.20;99.90
17591;DHT22;8914;50.070;8.226;2023-04-01T12:24:54;13.20;99.90
17591;DHT22;8914;50.070;8.226;2023-04-01T12:27:34;13.20;99.90
17591;DHT22;8914;50.070;8.226;2023-04-01T12:30:14;13.20;99.90
17591;DHT22;8914;50.070;8.226;2023-04-01T12:32:46;13.20;99.90
